createdAt,value
2023-05-15T00:00:41.077Z,0.80
2023-05-15T00:03:10.979Z,0.63
2023-05-15T00:05:38.823Z,0.47
2023-05-15T00:08:07.336Z,0.20
2023-05-15T00:10:35.108Z,0.55
2023-05-15T00:13:02.882Z,0.60
2023-05-15T00:15:30.640Z,0.63
2023-05-15T00:17:58.406Z,0.35
2023-05-15T00:20:27.560Z,0.73
2023-05-15T00:22:55.596Z,0.75
2023-05-15T00:25:23.539Z,0.50
2023-05-15T00:27:51.451Z,0.45
2023-05-15T00:30:19.208Z,0.40
2023-05-15T00:32:46.961Z,0.28
2023-05-15T00:35:14.681Z,0.50
2023-05-15T00:37:43.830Z,0.28
2023-05-15T00:40:20.136Z,0.30
2023-05-15T00:42:48.202Z,0.40
2023-05-15T00:45:18.311Z,0.47
2023-05-15T00:47:48.218Z,0.35
2023-05-15T00:50:16.790Z,0.63
2023-05-15T00:52:46.941Z,0.22
2023-05-15T00:55:14.828Z,0.45
2023-05-15T00:57:44.850Z,0.63
2023-05-15T01:00:16.832Z,0.52
2023-05-15T01:02:46.163Z,0.60
2023-05-15T01:05:14.561Z,0.30
2023-05-15T01:07:53.360Z,0.30
2023-05-15T01:10:23.613Z,0.32
2023-05-15T01:12:55.175Z,0.40
2023-05-15T01:15:24.444Z,0.30
2023-05-15T01:17:52.736Z,0.32
2023-05-15T01:20:23.274Z,0.30
2023-05-15T01:23:07.131Z,0.30
2023-05-15T01:26:27.053Z,0.30
2023-05-15T01:29:04.405Z,0.60
2023-05-15T01:31:36.157Z,0.40
2023-05-15T01:34:10.363Z,0.45
2023-05-15T01:36:47.375Z,0.63
2023-05-15T01:39:23.277Z,0.30
2023-05-15T01:41:57.627Z,0.40
2023-05-15T01:44:30.459Z,0.45
2023-05-15T01:47:02.941Z,0.63
2023-05-15T01:49:34.509Z,0.35
2023-05-15T01:52:10.545Z,1.15
2023-05-15T01:54:41.013Z,0.40
2023-05-15T01:57:11.531Z,0.20
2023-05-15T01:59:43.252Z,0.50
2023-05-15T02:02:13.357Z,0.73
2023-05-15T02:04:43.515Z,0.40
2023-05-15T02:07:11.815Z,0.47
2023-05-15T02:09:42.121Z,0.85
2023-05-15T02:12:12.792Z,0.55
2023-05-15T02:14:43.769Z,0.20
2023-05-15T02:17:11.787Z,0.22
2023-05-15T02:19:39.800Z,0.30
2023-05-15T02:22:07.804Z,0.73
2023-05-15T02:24:35.569Z,0.38
2023-05-15T02:27:18.457Z,0.50
2023-05-15T02:30:07.214Z,0.20
2023-05-15T02:32:48.922Z,0.30
2023-05-15T02:35:27.942Z,0.30
2023-05-15T02:38:01.255Z,0.32
2023-05-15T02:40:31.260Z,0.65
2023-05-15T02:43:00.367Z,0.52
2023-05-15T02:45:30.994Z,0.68
2023-05-15T02:48:00.600Z,0.50
2023-05-15T02:50:28.803Z,0.65
2023-05-15T02:53:03.609Z,0.50
2023-05-15T02:55:31.633Z,0.32
2023-05-15T02:58:00.275Z,0.40
2023-05-15T03:00:29.518Z,0.13
2023-05-15T03:02:57.732Z,0.28
2023-05-15T03:05:26.122Z,0.32
2023-05-15T03:07:54.212Z,0.20
2023-05-15T03:10:23.742Z,0.57
2023-05-15T03:12:51.526Z,0.40
2023-05-15T03:15:20.169Z,0.65
2023-05-15T03:17:49.286Z,0.40
2023-05-15T03:20:17.309Z,0.47
2023-05-15T03:22:45.033Z,0.52
2023-05-15T03:25:13.104Z,0.43
2023-05-15T03:27:40.869Z,0.55
2023-05-15T03:30:10.280Z,0.30
2023-05-15T03:32:38.087Z,0.57
2023-05-15T03:35:08.129Z,0.65
2023-05-15T03:37:35.959Z,0.80
2023-05-15T03:40:04.398Z,0.47
2023-05-15T03:42:32.144Z,0.47
2023-05-15T03:44:59.874Z,0.22
2023-05-15T03:47:27.788Z,0.68
2023-05-15T03:49:55.562Z,0.20
2023-05-15T03:52:24.721Z,0.73
2023-05-15T03:54:52.554Z,0.75
2023-05-15T03:57:20.388Z,0.43
2023-05-15T03:59:48.116Z,0.70
2023-05-15T04:02:15.874Z,0.47
2023-05-15T04:04:44.482Z,0.68
2023-05-15T04:07:12.277Z,0.60
2023-05-15T04:09:41.446Z,0.60
2023-05-15T04:12:09.849Z,0.50
2023-05-15T04:14:37.560Z,0.40
2023-05-15T04:17:05.694Z,0.50
2023-05-15T04:19:33.483Z,0.20
2023-05-15T04:22:01.174Z,0.75
2023-05-15T04:24:28.876Z,0.43
2023-05-15T04:26:57.930Z,0.50
2023-05-15T04:29:25.656Z,0.20
2023-05-15T04:31:53.428Z,0.45
2023-05-15T04:34:21.334Z,0.32
2023-05-15T04:36:50.737Z,0.68
2023-05-15T04:39:18.479Z,0.60
2023-05-15T04:41:46.342Z,1.00
2023-05-15T04:44:15.404Z,0.35
2023-05-15T04:46:43.301Z,0.35
2023-05-15T04:49:11.261Z,0.50
2023-05-15T04:51:39.030Z,0.65
2023-05-15T04:54:06.924Z,0.40
2023-05-15T04:56:34.698Z,0.40
2023-05-15T04:59:02.449Z,0.90
2023-05-15T05:01:31.590Z,0.38
2023-05-15T05:03:59.375Z,0.68
2023-05-15T05:06:30.257Z,1.05
2023-05-15T05:08:58.706Z,0.50
2023-05-15T05:11:26.410Z,0.60
2023-05-15T05:13:54.106Z,0.50
2023-05-15T05:16:21.973Z,1.00
2023-05-15T05:18:51.283Z,0.63
2023-05-15T05:21:19.253Z,1.02
2023-05-15T05:23:47.261Z,0.73
2023-05-15T05:26:15.177Z,0.57
2023-05-15T05:28:42.860Z,0.50
2023-05-15T05:31:10.901Z,0.73
2023-05-15T05:33:38.666Z,0.85
2023-05-15T05:36:08.680Z,0.45
2023-05-15T05:38:37.744Z,0.30
2023-05-15T05:41:05.566Z,0.50
2023-05-15T05:43:33.571Z,0.80
2023-05-15T05:46:01.303Z,0.93
2023-05-15T05:48:29.899Z,0.57
2023-05-15T05:50:57.821Z,0.47
2023-05-15T05:53:27.023Z,0.22
2023-05-15T05:55:55.430Z,0.55
2023-05-15T05:58:25.866Z,0.73
2023-05-15T06:00:54.315Z,0.60
2023-05-15T06:03:22.757Z,0.40
2023-05-15T06:05:50.932Z,0.85
2023-05-15T06:08:19.551Z,0.20
2023-05-15T06:10:48.935Z,0.45
2023-05-15T06:13:16.628Z,0.68
2023-05-15T06:15:45.775Z,0.45
2023-05-15T06:18:13.911Z,0.75
2023-05-15T06:20:42.885Z,0.55
2023-05-15T06:23:10.791Z,0.55
2023-05-15T06:25:38.778Z,0.70
2023-05-15T06:28:07.982Z,0.43
2023-05-15T06:30:35.740Z,0.60
2023-05-15T06:33:03.781Z,0.80
2023-05-15T06:35:31.554Z,0.52
2023-05-15T06:37:59.382Z,0.90
2023-05-15T06:40:27.464Z,0.73
2023-05-15T06:42:55.398Z,0.30
2023-05-15T06:45:24.643Z,0.70
2023-05-15T06:47:52.711Z,0.60
2023-05-15T06:50:20.833Z,0.40
2023-05-15T06:52:49.123Z,0.45
2023-05-15T06:55:17.350Z,0.50
2023-05-15T06:57:45.092Z,0.55
2023-05-15T07:00:14.802Z,0.63
2023-05-15T07:02:44.898Z,0.57
2023-05-15T07:05:15.291Z,0.50
2023-05-15T07:07:43.136Z,0.63
2023-05-15T07:10:11.966Z,0.45
2023-05-15T07:12:39.784Z,0.50
2023-05-15T07:15:08.927Z,0.88
2023-05-15T07:17:36.772Z,0.20
2023-05-15T07:20:07.893Z,0.52
2023-05-15T07:22:44.452Z,0.47
2023-05-15T07:25:20.151Z,0.47
2023-05-15T07:27:47.941Z,0.40
2023-05-15T07:30:16.526Z,0.25
2023-05-15T07:32:44.470Z,0.50
2023-05-15T07:35:13.888Z,0.52
2023-05-15T07:37:41.944Z,0.73
2023-05-15T07:40:10.648Z,0.43
2023-05-15T07:42:39.775Z,0.25
2023-05-15T07:45:09.589Z,0.63
2023-05-15T07:47:37.742Z,0.50
2023-05-15T07:50:06.880Z,0.30
2023-05-15T07:52:35.993Z,0.45
2023-05-15T07:55:04.146Z,0.77
2023-05-15T07:57:31.934Z,0.35
2023-05-15T07:59:59.867Z,0.40
2023-05-15T08:02:27.642Z,0.63
2023-05-15T08:04:55.572Z,0.50
2023-05-15T08:07:23.378Z,0.17
2023-05-15T08:09:52.823Z,0.47
2023-05-15T08:12:24.037Z,0.70
2023-05-15T08:14:55.024Z,0.63
2023-05-15T08:17:24.322Z,0.32
2023-05-15T08:19:53.104Z,0.45
2023-05-15T08:22:20.958Z,0.40
2023-05-15T08:24:48.900Z,0.68
2023-05-15T08:27:18.249Z,0.50
2023-05-15T08:29:45.946Z,0.50
2023-05-15T08:32:13.802Z,0.20
2023-05-15T08:34:41.876Z,0.65
2023-05-15T08:37:09.577Z,0.32
2023-05-15T08:39:37.400Z,0.75
2023-05-15T08:42:15.521Z,0.57
2023-05-15T08:44:45.612Z,0.35
2023-05-15T08:47:16.029Z,0.50
2023-05-15T08:49:55.151Z,0.38
2023-05-15T08:52:23.215Z,0.57
2023-05-15T08:54:51.498Z,0.98
2023-05-15T08:57:19.881Z,0.68
2023-05-15T08:59:52.411Z,0.68
2023-05-15T09:02:20.885Z,0.63
2023-05-15T09:04:48.890Z,0.43
2023-05-15T09:07:18.715Z,0.20
2023-05-15T09:09:47.163Z,0.38
2023-05-15T09:12:17.117Z,0.52
2023-05-15T09:14:45.620Z,0.68
2023-05-15T09:17:14.919Z,0.52
2023-05-15T09:19:44.334Z,0.63
2023-05-15T09:22:23.425Z,0.65
2023-05-15T09:24:53.211Z,0.60
2023-05-15T09:27:21.567Z,0.38
2023-05-15T09:29:51.312Z,0.50
2023-05-15T09:32:21.304Z,0.50
2023-05-15T09:34:49.241Z,0.43
2023-05-15T09:37:30.914Z,0.73
2023-05-15T09:40:10.921Z,0.65
2023-05-15T09:42:39.939Z,0.60
2023-05-15T09:45:19.041Z,0.57
2023-05-15T09:47:48.656Z,0.90
2023-05-15T09:50:23.816Z,0.32
2023-05-15T09:52:52.576Z,0.90
2023-05-15T09:55:22.883Z,0.63
2023-05-15T09:58:07.934Z,1.73
2023-05-15T10:00:47.856Z,1.15
2023-05-15T10:03:20.485Z,0.68
2023-05-15T10:05:48.525Z,0.60
2023-05-15T10:08:28.095Z,0.60
2023-05-15T10:11:00.734Z,0.40
2023-05-15T10:13:33.357Z,0.65
2023-05-15T10:16:03.637Z,0.50
2023-05-15T10:18:35.999Z,0.60
2023-05-15T10:21:05.127Z,0.85
2023-05-15T10:23:37.458Z,0.20
2023-05-15T10:26:12.221Z,0.45
2023-05-15T10:28:41.825Z,0.50
2023-05-15T10:31:12.269Z,0.60
2023-05-15T10:33:42.534Z,0.88
2023-05-15T10:36:11.785Z,0.65
2023-05-15T10:38:41.178Z,0.52
2023-05-15T10:41:17.645Z,0.52
2023-05-15T10:43:47.602Z,0.40
2023-05-15T10:46:17.513Z,0.52
2023-05-15T10:48:46.958Z,0.30
2023-05-15T10:51:17.367Z,0.60
2023-05-15T10:53:46.239Z,0.80
2023-05-15T10:56:16.963Z,0.85
2023-05-15T10:58:49.820Z,0.68
2023-05-15T11:01:32.046Z,0.50
2023-05-15T11:04:10.382Z,0.75
2023-05-15T11:06:39.739Z,0.77
2023-05-15T11:09:38.076Z,0.40
2023-05-15T11:12:09.122Z,0.60
2023-05-15T11:14:40.410Z,0.30
2023-05-15T11:17:10.564Z,0.57
2023-05-15T11:19:57.752Z,0.35
2023-05-15T11:22:32.279Z,0.50
2023-05-15T11:25:02.615Z,0.73
2023-05-15T11:27:33.025Z,0.38
2023-05-15T11:30:17.868Z,0.73
2023-05-15T11:35:30.339Z,0.30
2023-05-15T11:40:29.532Z,0.60
2023-05-15T11:43:03.410Z,0.80
2023-05-15T11:45:33.986Z,0.50
2023-05-15T11:48:04.941Z,0.30
2023-05-15T11:50:36.077Z,0.68
2023-05-15T11:53:07.069Z,0.75
2023-05-15T11:55:37.688Z,0.52
2023-05-15T11:58:07.763Z,0.50
2023-05-15T12:00:35.481Z,0.52
2023-05-15T12:03:04.684Z,0.82
2023-05-15T12:05:33.857Z,1.17
2023-05-15T12:08:02.209Z,0.50
2023-05-15T12:10:31.373Z,0.70
2023-05-15T12:13:00.387Z,0.80
2023-05-15T12:15:28.102Z,1.10
2023-05-15T12:17:56.046Z,0.90
2023-05-15T12:20:24.030Z,1.10
2023-05-15T12:22:53.264Z,0.90
2023-05-15T12:25:21.524Z,0.75
2023-05-15T12:27:51.151Z,0.98
2023-05-15T12:30:19.866Z,0.52
2023-05-15T12:32:48.144Z,0.60
2023-05-15T12:35:17.304Z,0.80
2023-05-15T12:37:46.136Z,0.82
2023-05-15T12:40:15.583Z,0.68
2023-05-15T12:42:45.400Z,0.52
2023-05-15T12:45:16.255Z,0.50
2023-05-15T12:47:45.892Z,0.82
2023-05-15T12:50:18.356Z,0.47
2023-05-15T12:52:53.365Z,0.47
2023-05-15T12:55:28.043Z,0.85
2023-05-15T12:57:58.534Z,0.40
2023-05-15T13:00:29.451Z,0.80
2023-05-15T13:02:59.354Z,0.52
2023-05-15T13:05:28.393Z,0.50
2023-05-15T13:07:56.149Z,0.70
2023-05-15T13:10:27.435Z,0.95
2023-05-15T13:12:57.915Z,0.50
2023-05-15T13:15:31.402Z,0.40
2023-05-15T13:18:05.182Z,1.10
2023-05-15T13:20:36.169Z,1.08
2023-05-15T13:23:04.725Z,0.85
2023-05-15T13:25:34.971Z,0.60
2023-05-15T13:28:05.554Z,0.60
2023-05-15T13:30:35.443Z,0.40
2023-05-15T13:33:03.883Z,0.80
2023-05-15T13:35:32.162Z,0.70
2023-05-15T13:37:59.848Z,0.73
2023-05-15T13:40:28.196Z,0.70
2023-05-15T13:42:57.318Z,0.57
2023-05-15T13:45:25.022Z,0.77
2023-05-15T13:47:53.015Z,1.00
2023-05-15T13:50:20.846Z,0.55
2023-05-15T13:52:48.710Z,1.10
2023-05-15T13:55:16.640Z,0.35
2023-05-15T13:57:45.220Z,1.05
2023-05-15T14:00:15.726Z,0.98
2023-05-15T14:02:45.183Z,0.65
2023-05-15T14:05:15.478Z,0.63
2023-05-15T14:07:43.741Z,0.70
2023-05-15T14:10:12.474Z,0.85
2023-05-15T14:12:43.146Z,0.80
2023-05-15T14:15:12.618Z,0.25
2023-05-15T14:17:42.937Z,0.80
2023-05-15T14:20:12.504Z,0.70
2023-05-15T14:22:41.610Z,0.60
2023-05-15T14:25:10.608Z,0.60
2023-05-15T14:27:38.366Z,0.60
2023-05-15T14:30:08.045Z,0.50
2023-05-15T14:32:36.012Z,0.82
2023-05-15T14:35:06.356Z,0.80
2023-05-15T14:37:34.194Z,0.98
2023-05-15T14:40:02.066Z,0.32
2023-05-15T14:42:29.787Z,0.77
2023-05-15T14:44:57.490Z,0.77
2023-05-15T14:47:28.159Z,0.60
2023-05-15T14:49:56.126Z,0.40
2023-05-15T14:52:25.366Z,0.77
2023-05-15T14:55:07.847Z,0.95
2023-05-15T14:57:36.905Z,0.87
2023-05-15T15:00:06.580Z,1.00
2023-05-15T15:02:34.741Z,0.50
2023-05-15T15:05:03.459Z,0.70
2023-05-15T15:07:52.578Z,1.02
2023-05-15T15:10:22.372Z,0.73
2023-05-15T15:12:52.773Z,0.60
2023-05-15T15:15:22.218Z,0.70
2023-05-15T15:17:50.337Z,0.47
2023-05-15T15:20:21.494Z,0.82
2023-05-15T15:22:49.363Z,0.95
2023-05-15T15:25:17.163Z,0.75
2023-05-15T15:27:46.521Z,0.73
2023-05-15T15:30:16.211Z,0.63
2023-05-15T15:32:45.829Z,0.80
2023-05-15T15:35:13.847Z,0.80
2023-05-15T15:37:41.635Z,1.05
2023-05-15T15:40:10.962Z,0.90
2023-05-15T15:42:38.994Z,0.82
2023-05-15T15:45:09.445Z,1.00
2023-05-15T15:47:37.373Z,0.80
2023-05-15T15:50:06.074Z,0.60
2023-05-15T15:52:33.869Z,1.02
2023-05-15T15:55:01.670Z,0.95
2023-05-15T15:57:31.190Z,1.02
2023-05-15T15:59:58.974Z,1.40
2023-05-15T16:02:28.435Z,1.30
2023-05-15T16:04:56.470Z,1.38
2023-05-15T16:07:24.433Z,1.38
2023-05-15T16:10:00.222Z,1.60
2023-05-15T16:12:31.938Z,2.10
2023-05-15T16:15:06.869Z,2.05
2023-05-15T16:17:42.831Z,1.83
2023-05-15T16:20:11.269Z,1.60
2023-05-15T16:22:41.456Z,1.30
2023-05-15T16:25:10.061Z,1.35
2023-05-15T16:27:37.755Z,1.65
2023-05-15T16:30:06.549Z,1.80
2023-05-15T16:32:34.390Z,1.73
2023-05-15T16:35:03.936Z,1.40
2023-05-15T16:37:32.254Z,1.38
2023-05-15T16:40:00.202Z,0.82
2023-05-15T16:42:28.385Z,1.13
2023-05-15T16:44:56.129Z,1.00
2023-05-15T16:47:24.071Z,0.90
2023-05-15T16:49:51.811Z,1.00
2023-05-15T16:52:20.841Z,1.30
2023-05-15T16:54:48.570Z,0.63
2023-05-15T16:57:16.349Z,0.68
2023-05-15T16:59:44.456Z,0.80
2023-05-15T17:02:12.602Z,1.48
2023-05-15T17:04:40.341Z,1.17
2023-05-15T17:07:09.280Z,1.00
2023-05-15T17:09:40.040Z,1.10
2023-05-15T17:12:08.494Z,0.80
2023-05-15T17:14:36.401Z,1.10
2023-05-15T17:17:04.332Z,1.10
2023-05-15T17:19:34.512Z,1.08
2023-05-15T17:22:02.387Z,1.00
2023-05-15T17:24:38.820Z,0.75
2023-05-15T17:27:19.963Z,1.08
2023-05-15T17:29:48.265Z,0.90
2023-05-15T17:32:16.888Z,0.63
2023-05-15T17:34:45.575Z,0.98
2023-05-15T17:37:13.444Z,1.25
2023-05-15T17:39:41.168Z,0.85
2023-05-15T17:42:08.909Z,0.77
2023-05-15T17:44:38.007Z,0.77
2023-05-15T17:47:06.183Z,0.98
2023-05-15T17:49:34.482Z,1.25
2023-05-15T17:52:02.486Z,0.77
2023-05-15T17:54:30.215Z,1.17
2023-05-15T17:56:58.028Z,1.15
2023-05-15T17:59:25.786Z,1.25
2023-05-15T18:01:55.490Z,1.08
2023-05-15T18:04:23.438Z,0.90
2023-05-15T18:06:52.391Z,1.42
2023-05-15T18:09:26.840Z,1.60
2023-05-15T18:11:54.579Z,1.25
2023-05-15T18:14:22.286Z,1.23
2023-05-15T18:16:49.947Z,0.93
2023-05-15T18:19:19.370Z,1.17
2023-05-15T18:21:47.260Z,1.63
2023-05-15T18:24:14.940Z,1.20
2023-05-15T18:26:43.360Z,1.50
2023-05-15T18:29:11.114Z,1.23
2023-05-15T18:31:39.719Z,1.23
2023-05-15T18:34:07.567Z,1.10
2023-05-15T18:36:36.746Z,1.02
2023-05-15T18:39:04.604Z,1.55
2023-05-15T18:41:32.349Z,1.40
2023-05-15T18:44:00.119Z,1.20
2023-05-15T18:46:28.389Z,1.42
2023-05-15T18:48:56.344Z,1.42
2023-05-15T18:51:36.296Z,1.33
2023-05-15T18:54:07.131Z,1.40
2023-05-15T18:56:36.096Z,1.77
2023-05-15T18:59:03.935Z,1.55
2023-05-15T19:01:31.657Z,0.98
2023-05-15T19:03:59.540Z,1.25
2023-05-15T19:06:27.246Z,0.85
2023-05-15T19:08:54.934Z,1.00
2023-05-15T19:11:23.999Z,1.33
2023-05-15T19:13:51.676Z,1.63
2023-05-15T19:16:27.004Z,1.50
2023-05-15T19:19:01.751Z,1.10
2023-05-15T19:21:31.980Z,1.48
2023-05-15T19:24:02.576Z,1.00
2023-05-15T19:26:35.514Z,1.58
2023-05-15T19:29:12.862Z,2.28
2023-05-15T19:31:41.991Z,2.25
2023-05-15T19:34:14.310Z,1.40
2023-05-15T19:36:43.619Z,1.80
2023-05-15T19:39:17.789Z,1.58
2023-05-15T19:41:48.573Z,1.33
2023-05-15T19:44:18.265Z,2.25
2023-05-15T19:46:49.355Z,2.40
2023-05-15T19:49:24.148Z,1.80
2023-05-15T19:51:52.949Z,2.90
2023-05-15T19:54:24.894Z,2.67
2023-05-15T19:56:58.754Z,1.70
2023-05-15T19:59:29.103Z,1.25
2023-05-15T20:01:57.077Z,1.30
2023-05-15T20:04:25.884Z,1.27
2023-05-15T20:06:54.705Z,1.75
2023-05-15T20:09:22.428Z,1.48
2023-05-15T20:11:50.196Z,1.27
2023-05-15T20:14:19.332Z,1.63
2023-05-15T20:16:47.305Z,1.45
2023-05-15T20:19:16.852Z,1.38
2023-05-15T20:21:44.716Z,1.50
2023-05-15T20:24:12.411Z,1.02
2023-05-15T20:26:40.908Z,1.42
2023-05-15T20:29:09.150Z,2.03
2023-05-15T20:31:40.188Z,1.20
2023-05-15T20:34:08.190Z,1.00
2023-05-15T20:36:38.644Z,1.08
2023-05-15T20:39:07.144Z,1.42
2023-05-15T20:41:35.434Z,0.93
2023-05-15T20:44:03.355Z,1.02
2023-05-15T20:46:31.625Z,1.77
2023-05-15T20:49:00.943Z,1.70
2023-05-15T20:51:28.765Z,1.33
2023-05-15T20:53:57.095Z,1.55
2023-05-15T20:56:25.768Z,1.33
2023-05-15T20:58:55.970Z,1.52
2023-05-15T21:01:25.210Z,1.48
2023-05-15T21:03:53.545Z,1.48
2023-05-15T21:06:22.790Z,1.45
2023-05-15T21:08:51.055Z,1.58
2023-05-15T21:11:18.826Z,1.42
2023-05-15T21:13:46.627Z,1.35
2023-05-15T21:16:14.446Z,1.40
2023-05-15T21:18:42.242Z,1.75
2023-05-15T21:21:09.998Z,1.52
2023-05-15T21:23:39.036Z,1.48
2023-05-15T21:26:06.815Z,1.80
2023-05-15T21:28:35.691Z,1.65
2023-05-15T21:31:08.021Z,1.50
2023-05-15T21:33:36.418Z,1.90
2023-05-15T21:36:05.319Z,1.75
2023-05-15T21:38:33.114Z,1.02
2023-05-15T21:41:03.330Z,1.70
2023-05-15T21:43:31.100Z,1.63
2023-05-15T21:45:58.891Z,1.25
2023-05-15T21:48:26.669Z,1.05
2023-05-15T21:50:56.515Z,1.55
2023-05-15T21:53:25.509Z,1.70
2023-05-15T21:55:56.496Z,1.80
2023-05-15T21:58:25.710Z,1.60
2023-05-15T22:00:53.648Z,1.58
2023-05-15T22:03:21.822Z,1.65
2023-05-15T22:05:52.728Z,1.67
2023-05-15T22:08:21.269Z,1.80
2023-05-15T22:10:49.671Z,1.42
2023-05-15T22:13:17.588Z,1.40
2023-05-15T22:15:46.876Z,1.42
2023-05-15T22:18:14.674Z,1.17
2023-05-15T22:20:44.257Z,1.08
2023-05-15T22:23:12.357Z,1.27
2023-05-15T22:25:40.042Z,1.45
2023-05-15T22:28:07.814Z,1.60
2023-05-15T22:30:36.323Z,1.45
2023-05-15T22:33:05.833Z,1.63
2023-05-15T22:35:33.614Z,2.08
2023-05-15T22:38:01.353Z,1.58
2023-05-15T22:40:29.155Z,1.08
2023-05-15T22:42:56.946Z,1.77
2023-05-15T22:45:24.669Z,2.00
2023-05-15T22:47:52.812Z,1.85
2023-05-15T22:50:21.982Z,2.10
2023-05-15T22:52:49.704Z,1.52
2023-05-15T22:55:17.641Z,2.03
2023-05-15T22:57:45.641Z,1.80
2023-05-15T23:00:14.790Z,1.98
2023-05-15T23:02:44.233Z,1.75
2023-05-15T23:05:12.951Z,2.00
2023-05-15T23:07:42.009Z,2.30
2023-05-15T23:10:10.872Z,1.67
2023-05-15T23:12:38.588Z,1.50
2023-05-15T23:15:07.334Z,1.60
2023-05-15T23:17:35.097Z,1.90
2023-05-15T23:20:02.941Z,1.52
2023-05-15T23:22:30.695Z,1.70
2023-05-15T23:24:59.812Z,1.83
2023-05-15T23:27:27.544Z,1.65
2023-05-15T23:29:55.466Z,1.77
2023-05-15T23:32:23.267Z,1.65
2023-05-15T23:34:51.895Z,2.08
2023-05-15T23:37:19.633Z,1.60
2023-05-15T23:39:47.307Z,2.03
2023-05-15T23:42:16.406Z,1.13
2023-05-15T23:44:44.499Z,2.30
2023-05-15T23:47:12.272Z,2.13
2023-05-15T23:49:40.105Z,1.60
2023-05-15T23:52:08.606Z,1.90
2023-05-15T23:54:36.327Z,1.95
2023-05-15T23:57:04.051Z,2.00
2023-05-15T23:59:33.155Z,1.92
